Time,TemperatureF,DewpointF,PressureIn,WindDirection,WindDirectionDegrees,WindSpeedMPH,WindSpeedGustMPH,Humidity,HourlyPrecipIn,Conditions,Clouds,dailyrainin,SoftwareType,DateUTC
2013-10-22 00:03:00,43.6,40.1,29.94,ESE,112,0.0,0.0,87,0.00,,,-99.99,Meteorologica,2013-10-22 05:03:00,
2013-10-22 00:08:00,43.7,40.2,29.94,ESE,112,0.0,0.0,87,0.00,,,-99.99,Meteorologica,2013-10-22 05:08:00,
2013-10-22 00:13:00,43.8,40.2,29.94,ESE,112,0.0,0.0,87,0.00,,,-99.99,Meteorologica,2013-10-22 05:13:00,
2013-10-22 00:18:00,43.8,40.2,29.94,ESE,112,0.0,0.0,87,0.00,,,-99.99,Meteorologica,2013-10-22 05:18:00,
2013-10-22 00:23:00,43.9,40.3,29.94,ESE,112,0.0,0.0,87,0.00,,,-99.99,Meteorologica,2013-10-22 05:23:00,
2013-10-22 00:28:00,43.9,40.3,29.94,ESE,112,0.0,0.0,87,0.00,,,-99.99,Meteorologica,2013-10-22 05:28:00,
2013-10-22 00:34:00,43.9,40.3,29.94,ESE,112,0.0,0.0,87,0.00,,,-99.99,Meteorologica,2013-10-22 05:34:00,
2013-10-22 00:39:00,43.8,40.3,29.94,ESE,112,0.0,0.0,87,0.00,,,-99.99,Meteorologica,2013-10-22 05:39:00,
2013-10-22 00:44:00,43.9,40.4,29.94,ESE,112,0.0,0.0,87,0.00,,,-99.99,Meteorologica,2013-10-22 05:44:00,
2013-10-22 00:49:00,44.1,40.5,29.94,ESE,112,0.0,0.0,87,0.00,,,-99.99,Meteorologica,2013-10-22 05:49:00,
2013-10-22 00:54:00,44.2,40.5,29.93,ESE,112,0.0,0.0,86,0.00,,,-99.99,Meteorologica,2013-10-22 05:54:00,
2013-10-22 00:59:00,44.2,40.4,29.93,ESE,112,0.0,0.0,86,0.00,,,-99.99,Meteorologica,2013-10-22 05:59:00,
2013-10-22 01:04:00,44.3,40.4,29.93,ESE,112,0.0,0.0,86,0.00,,,-99.99,Meteorologica,2013-10-22 06:04:00,
2013-10-22 01:09:00,44.3,40.4,29.93,ESE,112,0.0,0.0,86,0.00,,,-99.99,Meteorologica,2013-10-22 06:09:00,
2013-10-22 01:14:00,44.4,40.7,29.93,ESE,112,0.0,0.0,86,0.00,,,-99.99,Meteorologica,2013-10-22 06:14:00,
2013-10-22 01:19:00,44.5,40.7,29.93,ESE,112,0.0,0.0,86,0.00,,,-99.99,Meteorologica,2013-10-22 06:19:00,
2013-10-22 01:24:00,44.5,40.7,29.93,ESE,112,0.0,0.0,86,0.00,,,-99.99,Meteorologica,2013-10-22 06:24:00,
2013-10-22 01:29:00,44.6,40.8,29.93,ESE,112,0.0,0.0,86,0.00,,,-99.99,Meteorologica,2013-10-22 06:29:00,
2013-10-22 01:34:00,44.7,40.8,29.93,ESE,112,0.0,0.0,86,0.00,,,-99.99,Meteorologica,2013-10-22 06:34:00,
2013-10-22 01:39:00,44.7,40.8,29.93,ESE,112,0.0,0.0,86,0.00,,,-99.99,Meteorologica,2013-10-22 06:39:00,
2013-10-22 01:44:00,44.7,40.9,29.93,ESE,112,0.0,0.0,86,0.00,,,-99.99,Meteorologica,2013-10-22 06:44:00,
2013-10-22 01:49:00,44.7,40.9,29.92,ESE,112,0.0,0.0,86,0.00,,,-99.99,Meteorologica,2013-10-22 06:49:00,
2013-10-22 01:54:00,44.7,40.9,29.93,ESE,112,0.0,0.0,86,0.00,,,-99.99,Meteorologica,2013-10-22 06:54:00,
2013-10-22 01:59:00,44.9,41.0,29.93,ESE,112,0.0,0.0,86,0.00,,,-99.99,Meteorologica,2013-10-22 06:59:00,
2013-10-22 02:04:00,45.1,41.1,29.93,ESE,112,0.0,0.0,85,0.00,,,-99.99,Meteorologica,2013-10-22 07:04:00,
2013-10-22 02:09:00,45.3,41.1,29.93,ESE,112,0.0,0.0,85,0.00,,,-99.99,Meteorologica,2013-10-22 07:09:00,
2013-10-22 02:14:00,45.4,41.1,29.93,ESE,112,0.0,0.0,84,0.00,,,-99.99,Meteorologica,2013-10-22 07:14:00,
2013-10-22 02:19:00,45.5,41.2,29.93,ESE,112,0.0,0.0,84,0.00,,,-99.99,Meteorologica,2013-10-22 07:19:00,
2013-10-22 02:24:00,45.4,41.0,29.93,ESE,112,0.0,0.0,84,0.00,,,-99.99,Meteorologica,2013-10-22 07:24:00,
2013-10-22 02:29:00,45.5,40.9,29.93,ESE,112,0.0,0.0,84,0.00,,,-99.99,Meteorologica,2013-10-22 07:29:00,
2013-10-22 02:34:00,45.7,41.2,29.93,ESE,112,0.0,0.0,84,0.00,,,-99.99,Meteorologica,2013-10-22 07:34:00,
2013-10-22 02:39:00,45.7,41.2,29.92,ESE,112,0.0,0.0,84,0.00,,,-99.99,Meteorologica,2013-10-22 07:39:00,
2013-10-22 02:44:00,45.8,41.3,29.93,ESE,112,0.0,0.0,84,0.00,,,-99.99,Meteorologica,2013-10-22 07:44:00,
2013-10-22 02:49:00,45.8,41.2,29.93,ESE,112,0.0,0.0,84,0.00,,,-99.99,Meteorologica,2013-10-22 07:49:00,
2013-10-22 02:54:00,45.9,41.2,29.93,ESE,112,0.0,0.0,83,0.00,,,-99.99,Meteorologica,2013-10-22 07:54:00,
2013-10-22 02:59:00,46.0,41.2,29.92,ESE,112,0.0,0.0,83,0.00,,,-99.99,Meteorologica,2013-10-22 07:59:00,
2013-10-22 03:04:00,46.2,41.3,29.92,ESE,112,0.0,0.0,82,0.00,,,-99.99,Meteorologica,2013-10-22 08:04:00,
2013-10-22 03:09:00,46.3,41.1,29.92,ESE,112,0.0,0.0,82,0.00,,,-99.99,Meteorologica,2013-10-22 08:09:00,
2013-10-22 03:14:00,46.7,41.5,29.92,ESE,112,0.0,0.0,82,0.00,,,-99.99,Meteorologica,2013-10-22 08:14:00,
2013-10-22 03:19:00,46.8,41.6,29.92,ESE,112,0.0,0.0,81,0.00,,,-99.99,Meteorologica,2013-10-22 08:19:00,
2013-10-22 03:24:00,46.8,41.5,29.93,ESE,112,0.0,0.0,81,0.00,,,-99.99,Meteorologica,2013-10-22 08:24:00,
2013-10-22 03:29:00,46.8,41.5,29.92,ESE,112,0.0,0.0,81,0.00,,,-99.99,Meteorologica,2013-10-22 08:29:00,
2013-10-22 03:34:00,46.9,41.3,29.92,ESE,112,0.0,0.0,80,0.00,,,-99.99,Meteorologica,2013-10-22 08:34:00,
2013-10-22 03:39:00,47.1,41.5,29.92,ESE,112,0.0,0.0,80,0.00,,,-99.99,Meteorologica,2013-10-22 08:39:00,
2013-10-22 03:44:00,47.3,41.4,29.93,ESE,112,0.0,0.0,79,0.00,,,-99.99,Meteorologica,2013-10-22 08:44:00,
2013-10-22 03:49:00,47.4,41.5,29.92,ESE,112,0.0,0.0,79,0.00,,,-99.99,Meteorologica,2013-10-22 08:49:00,
2013-10-22 03:54:00,47.7,41.5,29.92,ESE,112,0.0,0.0,79,0.00,,,-99.99,Meteorologica,2013-10-22 08:54:00,
2013-10-22 03:59:00,47.8,41.5,29.92,ESE,112,0.0,0.0,78,0.00,,,-99.99,Meteorologica,2013-10-22 08:59:00,
2013-10-22 04:04:00,48.3,41.6,29.92,WSW,241,0.0,0.0,77,0.00,,,-99.99,Meteorologica,2013-10-22 09:04:00,
2013-10-22 04:09:00,48.8,42.1,29.91,WNW,286,0.8,2.9,77,0.00,,,-99.99,Meteorologica,2013-10-22 09:09:00,
2013-10-22 04:14:00,49.2,42.1,29.91,WNW,286,0.0,0.0,76,0.00,,,-99.99,Meteorologica,2013-10-22 09:14:00,
2013-10-22 04:19:00,49.5,42.3,29.91,WNW,286,0.0,0.0,76,0.00,,,-99.99,Meteorologica,2013-10-22 09:19:00,
2013-10-22 04:24:00,49.7,42.4,29.91,West,268,1.6,4.1,75,0.00,,,-99.99,Meteorologica,2013-10-22 09:24:00,
2013-10-22 04:29:00,49.7,42.3,29.91,SW,228,0.1,0.0,75,0.00,,,-99.99,Meteorologica,2013-10-22 09:29:00,
2013-10-22 04:35:00,49.8,42.4,29.91,WNW,287,0.5,5.0,75,0.00,,,-99.99,Meteorologica,2013-10-22 09:35:00,
2013-10-22 04:40:00,49.7,42.3,29.91,WNW,289,1.5,3.3,75,0.00,,,-99.99,Meteorologica,2013-10-22 09:40:00,
2013-10-22 04:45:00,49.8,42.5,29.91,NW,313,0.0,0.0,75,0.00,,,-99.99,Meteorologica,2013-10-22 09:45:00,
2013-10-22 04:50:00,49.7,42.4,29.91,NW,305,0.3,0.0,75,0.00,,,-99.99,Meteorologica,2013-10-22 09:50:00,
2013-10-22 04:55:00,49.7,42.6,29.91,WNW,290,0.0,0.0,76,0.00,,,-99.99,Meteorologica,2013-10-22 09:55:00,
2013-10-22 05:00:00,49.7,42.6,29.91,WNW,290,0.0,0.0,76,0.00,,,-99.99,Meteorologica,2013-10-22 10:00:00,
2013-10-22 05:05:00,49.8,42.8,29.91,WNW,290,0.0,0.0,76,0.00,,,-99.99,Meteorologica,2013-10-22 10:05:00,
2013-10-22 05:10:00,49.8,43.0,29.91,WNW,290,0.0,0.0,77,0.00,,,-99.99,Meteorologica,2013-10-22 10:10:00,
2013-10-22 05:15:00,49.8,43.0,29.91,WNW,290,0.0,0.0,77,0.00,,,-99.99,Meteorologica,2013-10-22 10:15:00,
2013-10-22 05:20:00,49.9,43.2,29.91,WNW,290,0.0,0.0,77,0.00,,,-99.99,Meteorologica,2013-10-22 10:20:00,
2013-10-22 05:25:00,50.1,43.4,29.91,WNW,290,0.0,0.0,77,0.00,,,-99.99,Meteorologica,2013-10-22 10:25:00,
2013-10-22 05:30:00,50.2,43.4,29.91,WNW,290,0.0,0.0,77,0.00,,,-99.99,Meteorologica,2013-10-22 10:30:00,
2013-10-22 05:35:00,50.5,43.6,29.91,WNW,290,0.0,0.0,77,0.00,,,-99.99,Meteorologica,2013-10-22 10:35:00,
2013-10-22 05:40:00,50.6,43.6,29.91,WSW,244,0.0,4.7,76,0.00,,,-99.99,Meteorologica,2013-10-22 10:40:00,
2013-10-22 05:45:00,50.6,43.7,29.91,WSW,244,0.0,0.0,77,0.00,,,-99.99,Meteorologica,2013-10-22 10:45:00,
2013-10-22 05:50:00,50.5,43.7,29.91,WSW,244,0.0,3.3,77,0.00,,,-99.99,Meteorologica,2013-10-22 10:50:00,
2013-10-22 05:55:00,50.6,43.9,29.91,West,262,1.6,5.3,77,0.00,,,-99.99,Meteorologica,2013-10-22 10:55:00,
2013-10-22 06:00:00,50.6,44.0,29.91,West,262,0.0,0.0,78,0.00,,,-99.99,Meteorologica,2013-10-22 11:00:00,
2013-10-22 06:05:00,50.1,43.7,29.91,WNW,295,0.0,0.0,78,0.00,,,-99.99,Meteorologica,2013-10-22 11:05:00,
2013-10-22 06:10:00,49.7,43.5,29.91,WNW,295,0.0,0.0,78,0.00,,,-99.99,Meteorologica,2013-10-22 11:10:00,
2013-10-22 06:15:00,49.5,43.6,29.91,NNW,338,0.0,2.5,79,0.00,,,-99.99,Meteorologica,2013-10-22 11:15:00,
2013-10-22 06:20:00,49.1,43.4,29.91,NNW,338,0.0,0.0,80,0.00,,,-99.99,Meteorologica,2013-10-22 11:20:00,
2013-10-22 06:25:00,48.8,43.3,29.91,NNW,338,0.0,0.0,81,0.00,,,-99.99,Meteorologica,2013-10-22 11:25:00,
2013-10-22 06:31:00,48.4,43.1,29.90,NNW,338,0.0,0.0,81,0.00,,,-99.99,Meteorologica,2013-10-22 11:31:00,
2013-10-22 06:36:00,48.0,43.0,29.91,NNW,338,0.0,0.0,82,0.00,,,-99.99,Meteorologica,2013-10-22 11:36:00,
2013-10-22 06:41:00,47.5,42.8,29.91,NNW,338,0.0,0.0,83,0.00,,,-99.99,Meteorologica,2013-10-22 11:41:00,
2013-10-22 06:46:00,47.1,42.8,29.91,NNW,338,0.0,0.0,85,0.00,,,-99.99,Meteorologica,2013-10-22 11:46:00,
2013-10-22 06:51:00,46.6,42.5,29.91,NNW,338,0.0,0.0,85,0.00,,,-99.99,Meteorologica,2013-10-22 11:51:00,
2013-10-22 06:56:00,46.2,42.5,29.91,NNW,338,0.0,0.0,86,0.00,,,-99.99,Meteorologica,2013-10-22 11:56:00,
2013-10-22 07:01:00,46.0,42.5,29.91,NNW,338,0.0,0.0,87,0.00,,,-99.99,Meteorologica,2013-10-22 12:01:00,
2013-10-22 07:06:00,46.0,42.7,29.91,NNW,338,0.0,0.0,88,0.00,,,-99.99,Meteorologica,2013-10-22 12:06:00,
2013-10-22 07:11:00,46.3,42.8,29.91,NNW,338,0.0,0.0,87,0.00,,,-99.99,Meteorologica,2013-10-22 12:11:00,
2013-10-22 07:16:00,46.6,43.0,29.91,NNW,338,0.0,0.0,87,0.00,,,-99.99,Meteorologica,2013-10-22 12:16:00,
2013-10-22 07:21:00,47.1,43.8,29.91,NNW,338,0.0,0.0,88,0.00,,,-99.99,Meteorologica,2013-10-22 12:21:00,
2013-10-22 07:26:00,47.9,44.1,29.91,SW,232,0.0,5.1,86,0.00,,,-99.99,Meteorologica,2013-10-22 12:26:00,
2013-10-22 07:31:00,48.8,44.5,29.91,WSW,244,1.3,5.0,85,0.00,,,-99.99,Meteorologica,2013-10-22 12:31:00,
2013-10-22 07:36:00,49.4,44.6,29.91,West,274,1.8,5.6,83,0.00,,,-99.99,Meteorologica,2013-10-22 12:36:00,
2013-10-22 07:41:00,50.0,44.8,29.91,North,4,0.0,5.8,82,0.00,,,-99.99,Meteorologica,2013-10-22 12:41:00,
2013-10-22 07:46:00,50.5,45.1,29.91,WSW,247,1.1,8.4,81,0.00,,,-99.99,Meteorologica,2013-10-22 12:46:00,
2013-10-22 07:51:00,50.6,45.2,29.91,WSW,252,0.0,4.8,81,0.00,,,-99.99,Meteorologica,2013-10-22 12:51:00,
2013-10-22 07:56:00,50.3,44.9,29.92,NW,314,4.4,6.3,81,0.00,,,-99.99,Meteorologica,2013-10-22 12:56:00,
2013-10-22 08:01:00,50.1,44.9,29.92,WNW,290,4.4,6.6,82,0.00,,,-99.99,Meteorologica,2013-10-22 13:01:00,
2013-10-22 08:06:00,50.0,44.9,29.91,SSW,203,0.0,2.9,82,0.00,,,-99.99,Meteorologica,2013-10-22 13:06:00,
2013-10-22 08:11:00,49.6,44.7,29.91,SSW,203,0.0,0.0,83,0.00,,,-99.99,Meteorologica,2013-10-22 13:11:00,
2013-10-22 08:16:00,49.7,44.8,29.91,SSW,203,0.0,0.0,83,0.00,,,-99.99,Meteorologica,2013-10-22 13:16:00,
2013-10-22 08:21:00,49.6,44.8,29.91,SSW,203,0.0,0.0,83,0.00,,,-99.99,Meteorologica,2013-10-22 13:21:00,
2013-10-22 08:26:00,49.8,44.9,29.91,West,271,0.0,3.2,83,0.00,,,-99.99,Meteorologica,2013-10-22 13:26:00,
2013-10-22 08:31:00,49.9,45.0,29.92,West,271,0.0,0.0,83,0.00,,,-99.99,Meteorologica,2013-10-22 13:31:00,
2013-10-22 08:36:00,50.1,45.2,29.92,West,271,0.0,0.0,83,0.00,,,-99.99,Meteorologica,2013-10-22 13:36:00,
2013-10-22 08:41:00,50.3,45.4,29.92,West,271,0.0,0.0,83,0.00,,,-99.99,Meteorologica,2013-10-22 13:41:00,
2013-10-22 08:46:00,50.7,45.5,29.92,WSW,241,0.0,3.2,82,0.00,,,-99.99,Meteorologica,2013-10-22 13:46:00,
2013-10-22 08:51:00,51.0,45.5,29.92,WNW,282,1.2,5.9,81,0.00,,,-99.99,Meteorologica,2013-10-22 13:51:00,
2013-10-22 08:56:00,51.4,45.7,29.93,North,359,1.0,5.6,80,0.00,,,-99.99,Meteorologica,2013-10-22 13:56:00,
2013-10-22 09:01:00,51.8,45.9,29.93,WNW,290,0.0,0.0,80,0.00,,,-99.99,Meteorologica,2013-10-22 14:01:00,
2013-10-22 09:06:00,52.2,45.6,29.94,West,273,3.3,6.8,78,0.00,,,-99.99,Meteorologica,2013-10-22 14:06:00,
2013-10-22 09:11:00,52.5,45.3,29.93,SW,225,5.5,10.9,76,0.00,,,-99.99,Meteorologica,2013-10-22 14:11:00,
2013-10-22 09:16:00,52.8,45.5,29.93,NNW,335,3.8,8.2,75,0.00,,,-99.99,Meteorologica,2013-10-22 14:16:00,
2013-10-22 09:21:00,52.9,45.8,29.93,WNW,283,2.7,6.8,76,0.00,,,-99.99,Meteorologica,2013-10-22 14:21:00,
2013-10-22 09:26:00,53.1,46.0,29.94,WNW,289,0.0,9.7,76,0.00,,,-99.99,Meteorologica,2013-10-22 14:26:00,
2013-10-22 09:31:00,53.1,45.8,29.94,NE,38,3.8,6.3,76,0.00,,,-99.99,Meteorologica,2013-10-22 14:31:00,
2013-10-22 09:36:00,53.2,45.5,29.94,SE,127,3.2,10.4,74,0.00,,,-99.99,Meteorologica,2013-10-22 14:36:00,
2013-10-22 09:41:00,53.2,45.4,29.95,North,359,3.0,9.9,74,0.00,,,-99.99,Meteorologica,2013-10-22 14:41:00,
2013-10-22 09:46:00,53.5,45.8,29.95,WNW,295,0.0,6.1,74,0.00,,,-99.99,Meteorologica,2013-10-22 14:46:00,
2013-10-22 09:51:00,54.5,46.4,29.96,WSW,252,0.5,4.4,73,0.00,,,-99.99,Meteorologica,2013-10-22 14:51:00,
2013-10-22 09:56:00,55.2,46.2,29.96,NNE,19,3.4,12.3,71,0.00,,,-99.99,Meteorologica,2013-10-22 14:56:00,
2013-10-22 10:02:00,55.1,46.1,29.96,NNW,327,2.4,12.3,71,0.00,,,-99.99,Meteorologica,2013-10-22 15:02:00,
2013-10-22 10:07:00,55.1,46.5,29.96,West,260,2.2,10.1,72,0.00,,,-99.99,Meteorologica,2013-10-22 15:07:00,
2013-10-22 10:12:00,54.9,46.0,29.97,WNW,285,2.8,7.0,71,0.00,,,-99.99,Meteorologica,2013-10-22 15:12:00,
2013-10-22 10:17:00,54.6,46.0,29.96,SSE,149,3.7,8.7,72,0.00,,,-99.99,Meteorologica,2013-10-22 15:17:00,
2013-10-22 10:22:00,54.2,45.9,29.96,NE,36,4.2,6.8,73,0.00,,,-99.99,Meteorologica,2013-10-22 15:22:00,
2013-10-22 10:27:00,54.2,46.3,29.97,SE,127,1.8,7.1,74,0.00,,,-99.99,Meteorologica,2013-10-22 15:27:00,
2013-10-22 10:32:00,54.2,46.0,29.97,WNW,287,0.6,6.4,73,0.00,,,-99.99,Meteorologica,2013-10-22 15:32:00,
2013-10-22 10:37:00,54.1,45.9,29.97,WSW,248,0.7,6.6,73,0.00,,,-99.99,Meteorologica,2013-10-22 15:37:00,
2013-10-22 10:42:00,54.2,46.0,29.97,ENE,68,2.1,6.1,73,0.00,,,-99.99,Meteorologica,2013-10-22 15:42:00,
2013-10-22 10:47:00,54.0,45.6,29.97,NNW,338,4.4,11.2,72,0.00,,,-99.99,Meteorologica,2013-10-22 15:47:00,
2013-10-22 10:52:00,54.2,46.0,29.97,NE,39,4.0,8.2,73,0.00,,,-99.99,Meteorologica,2013-10-22 15:52:00,
2013-10-22 10:57:00,54.6,46.3,29.97,NNW,328,2.0,9.9,73,0.00,,,-99.99,Meteorologica,2013-10-22 15:57:00,
2013-10-22 11:02:00,54.6,45.9,29.98,NNW,330,4.9,9.5,72,0.00,,,-99.99,Meteorologica,2013-10-22 16:02:00,
2013-10-22 11:07:00,54.6,45.9,29.98,West,281,4.7,7.6,72,0.00,,,-99.99,Meteorologica,2013-10-22 16:07:00,
2013-10-22 11:12:00,54.7,46.4,29.98,North,355,2.7,13.3,73,0.00,,,-99.99,Meteorologica,2013-10-22 16:12:00,
2013-10-22 11:17:00,55.1,46.1,29.98,North,349,2.4,9.5,71,0.00,,,-99.99,Meteorologica,2013-10-22 16:17:00,
2013-10-22 11:22:00,55.3,46.0,29.98,NNE,22,6.0,13.4,70,0.00,,,-99.99,Meteorologica,2013-10-22 16:22:00,
2013-10-22 11:27:00,55.5,46.2,29.98,North,4,3.9,7.9,70,0.00,,,-99.99,Meteorologica,2013-10-22 16:27:00,
2013-10-22 11:32:00,55.8,46.2,29.98,NNW,337,1.6,6.2,69,0.00,,,-99.99,Meteorologica,2013-10-22 16:32:00,
2013-10-22 11:37:00,56.0,46.2,29.98,East,85,3.6,9.0,69,0.00,,,-99.99,Meteorologica,2013-10-22 16:37:00,
2013-10-22 11:42:00,56.3,46.4,29.98,NNW,348,0.1,8.1,69,0.00,,,-99.99,Meteorologica,2013-10-22 16:42:00,
2013-10-22 11:47:00,56.7,46.5,29.98,North,352,1.7,6.8,68,0.00,,,-99.99,Meteorologica,2013-10-22 16:47:00,
2013-10-22 11:52:00,57.0,46.9,29.98,NE,55,1.2,8.4,68,0.00,,,-99.99,Meteorologica,2013-10-22 16:52:00,
2013-10-22 11:57:00,57.6,46.4,29.98,SW,235,5.9,7.8,65,0.00,,,-99.99,Meteorologica,2013-10-22 16:57:00,
2013-10-22 12:02:00,57.8,46.7,29.98,NNW,335,1.9,10.4,66,0.00,,,-99.99,Meteorologica,2013-10-22 17:02:00,
2013-10-22 12:07:00,58.1,46.5,29.98,NNE,19,5.6,10.2,64,0.00,,,-99.99,Meteorologica,2013-10-22 17:07:00,
2013-10-22 12:12:00,58.5,47.3,29.98,North,359,0.8,6.1,66,0.00,,,-99.99,Meteorologica,2013-10-22 17:12:00,
2013-10-22 12:17:00,58.8,47.2,29.98,WNW,283,5.7,12.3,65,0.00,,,-99.99,Meteorologica,2013-10-22 17:17:00,
2013-10-22 12:22:00,59.2,46.7,29.98,NNE,31,1.5,9.1,62,0.00,,,-99.99,Meteorologica,2013-10-22 17:22:00,
2013-10-22 12:27:00,59.3,46.7,29.98,NE,38,4.2,9.9,62,0.00,,,-99.99,Meteorologica,2013-10-22 17:27:00,
2013-10-22 12:32:00,59.6,47.2,29.98,ESE,119,3.9,8.8,63,0.00,,,-99.99,Meteorologica,2013-10-22 17:32:00,
2013-10-22 12:37:00,60.1,47.0,29.98,NNW,348,4.4,7.0,61,0.00,,,-99.99,Meteorologica,2013-10-22 17:37:00,
2013-10-22 12:42:00,60.2,46.7,29.98,West,279,2.8,5.8,60,0.00,,,-99.99,Meteorologica,2013-10-22 17:42:00,
2013-10-22 12:47:00,60.3,47.9,29.98,NNW,347,0.6,7.4,63,0.00,,,-99.99,Meteorologica,2013-10-22 17:47:00,
2013-10-22 12:52:00,60.5,46.3,29.98,ESE,118,4.3,13.0,59,0.00,,,-99.99,Meteorologica,2013-10-22 17:52:00,
2013-10-22 12:57:00,60.2,45.7,29.98,North,359,2.8,10.4,58,0.00,,,-99.99,Meteorologica,2013-10-22 17:57:00,
2013-10-22 13:02:00,60.2,46.1,29.98,SSE,149,3.3,12.6,59,0.00,,,-99.99,Meteorologica,2013-10-22 18:02:00,
2013-10-22 13:07:00,60.4,45.8,29.97,NNE,14,3.8,8.9,58,0.00,,,-99.99,Meteorologica,2013-10-22 18:07:00,
2013-10-22 13:12:00,60.5,45.3,29.98,North,7,5.8,13.6,57,0.00,,,-99.99,Meteorologica,2013-10-22 18:12:00,
2013-10-22 13:17:00,60.8,45.5,29.98,North,0,3.3,11.7,58,0.00,,,-99.99,Meteorologica,2013-10-22 18:17:00,
2013-10-22 13:22:00,60.6,45.4,29.98,NNW,337,4.4,12.4,56,0.00,,,-99.99,Meteorologica,2013-10-22 18:22:00,
2013-10-22 13:27:00,60.6,45.2,29.98,SE,132,5.9,14.2,56,0.00,,,-99.99,Meteorologica,2013-10-22 18:27:00,
2013-10-22 13:32:00,60.6,45.1,29.98,WSW,251,4.5,12.1,56,0.00,,,-99.99,Meteorologica,2013-10-22 18:32:00,
2013-10-22 13:37:00,60.7,45.5,29.97,North,356,2.0,10.2,56,0.00,,,-99.99,Meteorologica,2013-10-22 18:37:00,
2013-10-22 13:42:00,61.4,45.4,29.98,North,8,2.7,15.5,55,0.00,,,-99.99,Meteorologica,2013-10-22 18:42:00,
2013-10-22 13:47:00,61.9,45.7,29.98,ENE,66,2.4,8.2,55,0.00,,,-99.99,Meteorologica,2013-10-22 18:47:00,
2013-10-22 13:52:00,62.4,45.0,29.97,SW,236,7.2,9.9,52,0.00,,,-99.99,Meteorologica,2013-10-22 18:52:00,
2013-10-22 13:57:00,62.1,45.7,29.98,NNW,338,1.3,7.8,54,0.00,,,-99.99,Meteorologica,2013-10-22 18:57:00,
2013-10-22 14:02:00,61.0,44.8,29.98,NE,36,3.2,7.7,55,0.00,,,-99.99,Meteorologica,2013-10-22 19:02:00,
2013-10-22 14:07:00,60.1,45.0,29.98,NNW,339,4.2,9.4,56,0.00,,,-99.99,Meteorologica,2013-10-22 19:07:00,
2013-10-22 14:12:00,59.4,45.1,29.98,NE,47,2.9,6.8,58,0.00,,,-99.99,Meteorologica,2013-10-22 19:12:00,
2013-10-22 14:17:00,59.4,44.5,29.98,WSW,241,2.3,8.4,57,0.00,,,-99.99,Meteorologica,2013-10-22 19:17:00,
2013-10-22 14:22:00,58.9,45.1,29.98,North,9,3.4,7.3,59,0.00,,,-99.99,Meteorologica,2013-10-22 19:22:00,
2013-10-22 14:27:00,58.2,44.1,29.99,NNE,21,5.1,12.1,59,0.00,,,-99.99,Meteorologica,2013-10-22 19:27:00,
2013-10-22 14:32:00,57.3,43.9,29.99,SE,140,3.4,11.2,60,0.00,,,-99.99,Meteorologica,2013-10-22 19:32:00,
2013-10-22 14:37:00,57.1,44.2,29.99,West,265,0.7,6.9,61,0.00,,,-99.99,Meteorologica,2013-10-22 19:37:00,
2013-10-22 14:42:00,57.6,44.0,29.99,NNW,345,4.5,6.8,60,0.00,,,-99.99,Meteorologica,2013-10-22 19:42:00,
2013-10-22 14:47:00,58.2,43.8,29.98,WSW,249,1.6,8.2,58,0.00,,,-99.99,Meteorologica,2013-10-22 19:47:00,
2013-10-22 14:52:00,59.1,45.0,29.98,North,1,3.0,6.5,59,0.00,,,-99.99,Meteorologica,2013-10-22 19:52:00,
2013-10-22 14:57:00,59.8,44.4,29.99,SE,134,4.6,8.7,56,0.00,,,-99.99,Meteorologica,2013-10-22 19:57:00,
2013-10-22 15:02:00,59.8,44.7,29.98,NNE,22,1.1,6.6,57,0.00,,,-99.99,Meteorologica,2013-10-22 20:02:00,
2013-10-22 15:07:00,59.5,44.1,29.98,North,359,2.8,6.4,56,0.00,,,-99.99,Meteorologica,2013-10-22 20:07:00,
2013-10-22 15:12:00,59.4,44.6,29.99,WNW,302,2.5,6.3,57,0.00,,,-99.99,Meteorologica,2013-10-22 20:12:00,
2013-10-22 15:17:00,59.2,43.8,29.99,WSW,255,3.6,12.3,56,0.00,,,-99.99,Meteorologica,2013-10-22 20:17:00,
2013-10-22 15:22:00,58.9,44.0,29.99,WNW,302,2.4,5.4,57,0.00,,,-99.99,Meteorologica,2013-10-22 20:22:00,
2013-10-22 15:27:00,58.8,43.6,29.98,North,359,5.3,8.4,56,0.00,,,-99.99,Meteorologica,2013-10-22 20:27:00,
2013-10-22 15:32:00,58.9,43.5,29.99,NW,321,3.0,10.5,56,0.00,,,-99.99,Meteorologica,2013-10-22 20:32:00,
2013-10-22 15:37:00,59.3,42.8,29.98,NW,312,4.9,10.0,54,0.00,,,-99.99,Meteorologica,2013-10-22 20:37:00,
2013-10-22 15:42:00,59.4,43.6,29.98,North,8,1.3,8.1,55,0.00,,,-99.99,Meteorologica,2013-10-22 20:42:00,
2013-10-22 15:47:00,59.5,43.5,29.99,NNW,348,2.4,7.9,55,0.00,,,-99.99,Meteorologica,2013-10-22 20:47:00,
2013-10-22 15:52:00,59.0,43.9,29.99,North,0,1.7,7.3,57,0.00,,,-99.99,Meteorologica,2013-10-22 20:52:00,
2013-10-22 15:57:00,58.8,43.5,29.99,ESE,122,1.1,5.4,56,0.00,,,-99.99,Meteorologica,2013-10-22 20:57:00,
2013-10-22 16:02:00,59.0,43.7,30.00,NE,50,3.0,9.2,56,0.00,,,-99.99,Meteorologica,2013-10-22 21:02:00,
2013-10-22 16:07:00,59.4,43.3,30.00,NW,319,1.1,6.9,55,0.00,,,-99.99,Meteorologica,2013-10-22 21:07:00,
2013-10-22 16:12:00,59.7,43.3,29.99,North,2,1.7,7.5,54,0.00,,,-99.99,Meteorologica,2013-10-22 21:12:00,
2013-10-22 16:17:00,59.9,42.8,29.99,WNW,286,1.9,8.1,53,0.00,,,-99.99,Meteorologica,2013-10-22 21:17:00,
2013-10-22 16:22:00,59.6,42.5,30.00,NNE,28,1.7,9.9,52,0.00,,,-99.99,Meteorologica,2013-10-22 21:22:00,
2013-10-22 16:27:00,59.5,42.5,30.00,NNW,333,1.4,6.9,53,0.00,,,-99.99,Meteorologica,2013-10-22 21:27:00,
2013-10-22 16:32:00,59.4,42.9,30.00,WSW,244,4.6,10.1,54,0.00,,,-99.99,Meteorologica,2013-10-22 21:32:00,
2013-10-22 16:37:00,59.6,42.9,30.00,SW,226,6.2,9.4,53,0.00,,,-99.99,Meteorologica,2013-10-22 21:37:00,
2013-10-22 16:42:00,59.8,43.8,30.00,WSW,239,3.9,14.0,55,0.00,,,-99.99,Meteorologica,2013-10-22 21:42:00,
2013-10-22 16:47:00,59.6,43.4,30.00,North,351,3.7,7.4,54,0.00,,,-99.99,Meteorologica,2013-10-22 21:47:00,
2013-10-22 16:52:00,59.5,43.4,30.00,North,359,0.1,8.9,55,0.00,,,-99.99,Meteorologica,2013-10-22 21:52:00,
2013-10-22 16:57:00,59.0,43.0,30.00,North,9,3.4,5.9,55,0.00,,,-99.99,Meteorologica,2013-10-22 21:57:00,
2013-10-22 17:02:00,58.7,42.6,30.00,North,10,3.3,7.6,54,0.00,,,-99.99,Meteorologica,2013-10-22 22:02:00,
2013-10-22 17:07:00,58.5,43.1,30.00,North,0,4.3,6.6,56,0.00,,,-99.99,Meteorologica,2013-10-22 22:07:00,
2013-10-22 17:12:00,58.2,43.2,30.01,North,3,3.5,9.6,57,0.00,,,-99.99,Meteorologica,2013-10-22 22:12:00,
2013-10-22 17:17:00,57.5,43.1,30.01,SW,223,5.8,15.6,58,0.00,,,-99.99,Meteorologica,2013-10-22 22:17:00,
2013-10-22 17:22:00,56.9,43.0,30.02,SW,225,4.8,8.8,59,0.00,,,-99.99,Meteorologica,2013-10-22 22:22:00,
2013-10-22 17:27:00,56.4,42.8,30.02,SW,236,6.8,11.8,59,0.00,,,-99.99,Meteorologica,2013-10-22 22:27:00,
2013-10-22 17:32:00,56.2,43.0,30.03,NNE,22,3.9,11.3,60,0.00,,,-99.99,Meteorologica,2013-10-22 22:32:00,
2013-10-22 17:37:00,55.9,42.9,30.03,NE,37,3.6,7.2,61,0.00,,,-99.99,Meteorologica,2013-10-22 22:37:00,
2013-10-22 17:42:00,55.7,42.9,30.03,NE,38,4.2,9.2,61,0.00,,,-99.99,Meteorologica,2013-10-22 22:42:00,
2013-10-22 17:47:00,55.5,42.9,30.03,NNE,16,1.2,5.7,62,0.00,,,-99.99,Meteorologica,2013-10-22 22:47:00,
2013-10-22 17:52:00,55.3,43.0,30.03,North,353,1.4,6.4,62,0.00,,,-99.99,Meteorologica,2013-10-22 22:52:00,
2013-10-22 17:57:00,55.0,42.8,30.03,North,355,0.0,6.5,63,0.00,,,-99.99,Meteorologica,2013-10-22 22:57:00,
2013-10-22 18:02:00,54.7,42.6,30.03,NNW,331,3.3,10.7,63,0.00,,,-99.99,Meteorologica,2013-10-22 23:02:00,
2013-10-22 18:07:00,54.5,42.2,30.03,NNE,26,3.0,8.7,62,0.00,,,-99.99,Meteorologica,2013-10-22 23:07:00,
2013-10-22 18:12:00,54.2,42.2,30.03,North,359,0.7,8.9,63,0.00,,,-99.99,Meteorologica,2013-10-22 23:12:00,
2013-10-22 18:17:00,53.9,42.1,30.04,North,359,0.0,2.9,63,0.00,,,-99.99,Meteorologica,2013-10-22 23:17:00,
2013-10-22 18:22:00,53.5,41.8,30.04,North,359,0.8,3.2,64,0.00,,,-99.99,Meteorologica,2013-10-22 23:22:00,
2013-10-22 18:27:00,53.2,41.8,30.04,North,359,0.0,2.1,64,0.00,,,-99.99,Meteorologica,2013-10-22 23:27:00,
2013-10-22 18:32:00,52.8,41.6,30.05,North,359,2.4,5.8,65,0.00,,,-99.99,Meteorologica,2013-10-22 23:32:00,
2013-10-22 18:37:00,52.6,41.6,30.04,North,4,0.0,0.0,65,0.00,,,-99.99,Meteorologica,2013-10-22 23:37:00,
2013-10-22 18:42:00,52.3,41.6,30.05,North,4,0.0,0.0,66,0.00,,,-99.99,Meteorologica,2013-10-22 23:42:00,
2013-10-22 18:47:00,52.1,41.6,30.05,North,4,0.0,0.0,67,0.00,,,-99.99,Meteorologica,2013-10-22 23:47:00,
2013-10-22 18:52:00,51.6,41.3,30.05,North,4,0.0,0.0,67,0.00,,,-99.99,Meteorologica,2013-10-22 23:52:00,
2013-10-22 18:57:00,51.2,41.5,30.06,North,7,1.0,5.0,69,0.00,,,-99.99,Meteorologica,2013-10-22 23:57:00,
2013-10-22 19:02:00,50.8,41.1,30.06,NNW,341,0.0,3.4,69,0.00,,,-99.99,Meteorologica,2013-10-23 00:02:00,
2013-10-22 19:07:00,50.4,40.9,30.06,NNW,341,0.0,0.0,69,0.00,,,-99.99,Meteorologica,2013-10-23 00:07:00,
2013-10-22 19:12:00,50.1,40.9,30.06,ESE,115,2.4,7.8,70,0.00,,,-99.99,Meteorologica,2013-10-23 00:12:00,
2013-10-22 19:17:00,49.9,41.0,30.06,NE,42,1.9,4.6,71,0.00,,,-99.99,Meteorologica,2013-10-23 00:17:00,
2013-10-22 19:22:00,49.6,40.9,30.06,ENE,60,0.0,6.8,71,0.00,,,-99.99,Meteorologica,2013-10-23 00:22:00,
2013-10-22 19:27:00,49.4,40.9,30.07,NNE,19,0.8,4.3,72,0.00,,,-99.99,Meteorologica,2013-10-23 00:27:00,
2013-10-22 19:32:00,49.1,40.8,30.07,NNE,21,0.5,5.8,72,0.00,,,-99.99,Meteorologica,2013-10-23 00:32:00,
2013-10-22 19:37:00,48.9,40.8,30.08,NNW,333,0.0,3.5,73,0.00,,,-99.99,Meteorologica,2013-10-23 00:37:00,
2013-10-22 19:42:00,48.7,40.7,30.08,NW,326,0.0,0.0,73,0.00,,,-99.99,Meteorologica,2013-10-23 00:42:00,
2013-10-22 19:47:00,48.3,40.7,30.08,NW,326,0.0,0.0,74,0.00,,,-99.99,Meteorologica,2013-10-23 00:47:00,
2013-10-22 19:52:00,48.0,40.8,30.08,NNW,340,0.0,2.5,75,0.00,,,-99.99,Meteorologica,2013-10-23 00:52:00,
2013-10-22 19:57:00,47.9,40.5,30.08,NNW,340,0.0,0.0,75,0.00,,,-99.99,Meteorologica,2013-10-23 00:57:00,
2013-10-22 20:02:00,47.6,40.5,30.08,NNE,21,1.5,6.1,76,0.00,,,-99.99,Meteorologica,2013-10-23 01:02:00,
2013-10-22 20:07:00,47.4,40.5,30.08,North,352,0.0,3.3,76,0.00,,,-99.99,Meteorologica,2013-10-23 01:07:00,
2013-10-22 20:12:00,47.2,40.4,30.08,North,352,0.0,0.0,77,0.00,,,-99.99,Meteorologica,2013-10-23 01:12:00,
2013-10-22 20:17:00,46.8,40.2,30.08,North,352,0.0,0.0,77,0.00,,,-99.99,Meteorologica,2013-10-23 01:17:00,
2013-10-22 20:22:00,46.4,40.1,30.08,North,352,0.0,0.0,78,0.00,,,-99.99,Meteorologica,2013-10-23 01:22:00,
2013-10-22 20:27:00,46.1,40.0,30.09,North,352,0.0,0.0,79,0.00,,,-99.99,Meteorologica,2013-10-23 01:27:00,
2013-10-22 20:32:00,45.8,39.9,30.09,North,352,0.0,0.0,79,0.00,,,-99.99,Meteorologica,2013-10-23 01:32:00,
2013-10-22 20:37:00,45.3,39.7,30.09,North,352,0.0,0.0,80,0.00,,,-99.99,Meteorologica,2013-10-23 01:37:00,
2013-10-22 20:42:00,45.0,39.7,30.09,North,352,0.0,0.0,81,0.00,,,-99.99,Meteorologica,2013-10-23 01:42:00,
2013-10-22 20:47:00,44.6,39.5,30.09,North,352,0.0,0.0,82,0.00,,,-99.99,Meteorologica,2013-10-23 01:47:00,
2013-10-22 20:52:00,44.4,39.4,30.09,North,352,0.0,0.0,82,0.00,,,-99.99,Meteorologica,2013-10-23 01:52:00,
2013-10-22 20:57:00,44.0,39.2,30.10,North,352,0.0,0.0,83,0.00,,,-99.99,Meteorologica,2013-10-23 01:57:00,
2013-10-22 21:02:00,43.8,39.1,30.09,North,352,0.0,0.0,83,0.00,,,-99.99,Meteorologica,2013-10-23 02:02:00,
2013-10-22 21:07:00,43.5,38.9,30.10,North,352,0.0,0.0,83,0.00,,,-99.99,Meteorologica,2013-10-23 02:07:00,
2013-10-22 21:12:00,43.2,39.1,30.10,North,352,0.0,0.0,85,0.00,,,-99.99,Meteorologica,2013-10-23 02:12:00,
2013-10-22 21:17:00,42.9,38.8,30.09,North,352,0.0,0.0,85,0.00,,,-99.99,Meteorologica,2013-10-23 02:17:00,
2013-10-22 21:22:00,42.7,38.7,30.10,North,352,0.0,0.0,85,0.00,,,-99.99,Meteorologica,2013-10-23 02:22:00,
2013-10-22 21:27:00,42.4,38.6,30.10,North,352,0.0,0.0,86,0.00,,,-99.99,Meteorologica,2013-10-23 02:27:00,
2013-10-22 21:32:00,42.0,38.3,30.10,North,352,0.0,0.0,86,0.00,,,-99.99,Meteorologica,2013-10-23 02:32:00,
2013-10-22 21:37:00,41.8,38.3,30.11,North,352,0.0,0.0,87,0.00,,,-99.99,Meteorologica,2013-10-23 02:37:00,
2013-10-22 21:42:00,41.4,38.1,30.11,North,352,0.0,0.0,88,0.00,,,-99.99,Meteorologica,2013-10-23 02:42:00,
2013-10-22 21:47:00,41.1,38.0,30.12,North,352,0.0,0.0,88,0.00,,,-99.99,Meteorologica,2013-10-23 02:47:00,
2013-10-22 21:52:00,40.8,37.9,30.12,North,352,0.0,0.0,89,0.00,,,-99.99,Meteorologica,2013-10-23 02:52:00,
2013-10-22 21:57:00,40.6,37.9,30.12,North,352,0.0,0.0,90,0.00,,,-99.99,Meteorologica,2013-10-23 02:57:00,
2013-10-22 22:02:00,40.4,37.7,30.12,North,352,0.0,0.0,90,0.00,,,-99.99,Meteorologica,2013-10-23 03:02:00,
2013-10-22 22:07:00,40.1,37.4,30.12,North,352,0.0,0.0,90,0.00,,,-99.99,Meteorologica,2013-10-23 03:07:00,
2013-10-22 22:12:00,39.9,37.3,30.12,North,352,0.0,0.0,90,0.00,,,-99.99,Meteorologica,2013-10-23 03:12:00,
2013-10-22 22:17:00,39.9,37.4,30.12,North,352,0.0,0.0,90,0.00,,,-99.99,Meteorologica,2013-10-23 03:17:00,
2013-10-22 22:22:00,39.7,37.3,30.13,North,352,0.0,0.0,91,0.00,,,-99.99,Meteorologica,2013-10-23 03:22:00,
2013-10-22 22:27:00,39.5,37.1,30.12,North,352,0.0,0.0,91,0.00,,,-99.99,Meteorologica,2013-10-23 03:27:00,
2013-10-22 22:32:00,39.3,36.9,30.12,North,352,0.0,0.0,91,0.00,,,-99.99,Meteorologica,2013-10-23 03:32:00,
2013-10-22 22:37:00,39.1,36.8,30.13,North,352,0.0,0.0,91,0.00,,,-99.99,Meteorologica,2013-10-23 03:37:00,
2013-10-22 22:42:00,39.0,36.7,30.13,North,352,0.0,0.0,91,0.00,,,-99.99,Meteorologica,2013-10-23 03:42:00,
2013-10-22 22:47:00,38.8,36.5,30.13,North,352,0.0,0.0,91,0.00,,,-99.99,Meteorologica,2013-10-23 03:47:00,
2013-10-22 22:52:00,38.7,36.3,30.13,North,352,0.0,0.0,91,0.00,,,-99.99,Meteorologica,2013-10-23 03:52:00,
2013-10-22 22:57:00,38.5,36.2,30.12,North,352,0.0,0.0,91,0.00,,,-99.99,Meteorologica,2013-10-23 03:57:00,
2013-10-22 23:01:00,38.3,36.1,30.13,North,352,0.0,0.0,91,0.00,,,-99.99,Meteorologica,2013-10-23 04:01:00,
2013-10-22 23:02:00,38.3,36.1,30.13,North,352,0.0,0.0,91,0.00,,,-99.99,Meteorologica,2013-10-23 04:02:00,
2013-10-22 23:03:00,38.2,36.0,30.13,North,352,0.0,0.0,91,0.00,,,-99.99,Meteorologica,2013-10-23 04:03:00,
2013-10-22 23:04:00,38.2,36.0,30.13,North,352,0.0,0.0,92,0.00,,,-99.99,Meteorologica,2013-10-23 04:04:00,
2013-10-22 23:06:00,38.1,35.9,30.13,North,352,0.0,0.0,92,0.00,,,-99.99,Meteorologica,2013-10-23 04:06:00,
2013-10-22 23:08:00,38.0,35.8,30.13,North,352,0.0,0.0,92,0.00,,,-99.99,Meteorologica,2013-10-23 04:08:00,
2013-10-22 23:13:00,37.8,35.7,30.13,North,352,0.0,0.0,92,0.00,,,-99.99,Meteorologica,2013-10-23 04:13:00,
2013-10-22 23:18:00,37.7,35.6,30.13,North,352,0.0,0.0,92,0.00,,,-99.99,Meteorologica,2013-10-23 04:18:00,
2013-10-22 23:23:00,37.4,35.4,30.13,North,352,0.0,0.0,92,0.00,,,-99.99,Meteorologica,2013-10-23 04:23:00,
2013-10-22 23:28:00,37.3,35.3,30.13,North,352,0.0,0.0,92,0.00,,,-99.99,Meteorologica,2013-10-23 04:28:00,
2013-10-22 23:33:00,37.2,35.2,30.13,North,352,0.0,0.0,92,0.00,,,-99.99,Meteorologica,2013-10-23 04:33:00,
2013-10-22 23:38:00,37.0,35.0,30.12,North,352,0.0,0.0,92,0.00,,,-99.99,Meteorologica,2013-10-23 04:38:00,
2013-10-22 23:43:00,36.9,35.0,30.14,North,352,0.0,0.0,92,0.00,,,-99.99,Meteorologica,2013-10-23 04:43:00,
2013-10-22 23:48:00,36.7,34.8,30.13,North,352,0.0,0.0,93,0.00,,,-99.99,Meteorologica,2013-10-23 04:48:00,
2013-10-22 23:53:00,36.6,34.7,30.13,North,352,0.0,0.0,93,0.00,,,-99.99,Meteorologica,2013-10-23 04:53:00,
2013-10-22 23:58:00,36.6,34.7,30.13,North,352,0.0,0.0,93,0.00,,,-99.99,Meteorologica,2013-10-23 04:58:00,